Time;durP1;ratioP1;P1;durP2;ratioP2;P2;SDS_P1;SDS_P2;PMS_P1;PMS_P2;Temp;Humidity;BMP_temperature;BMP_pressure;BME280_temperature;BME280_humidity;BME280_pressure;Samples;Min_cycle;Max_cycle;Signal;HPM_P1;HPM_P2
2022/04/21 00:00:36;;;;;;;4.65;3.38;;;;;;;;;;5032252;28;20537;-77
2022/04/21 00:03:02;;;;;;;5.45;3.53;;;;;;;;;;5031691;28;20029;-77
2022/04/21 00:05:28;;;;;;;6.47;3.08;;;;;;;;;;5033841;28;20051;-77
2022/04/21 00:07:54;;;;;;;7.00;3.13;;;;;;;;;;5023349;28;20453;-76
2022/04/21 00:10:21;;;;;;;4.75;3.20;;;;;;;;;;5032528;28;20078;-77
2022/04/21 00:12:47;;;;;;;6.15;3.33;;;;;;;;;;5033545;28;20039;-77
2022/04/21 00:15:14;;;;;;;4.63;3.45;;;;;;;;;;5033472;28;20029;-77
2022/04/21 00:17:40;;;;;;;5.57;4.13;;;;;;;;;;5033118;28;20121;-78
2022/04/21 00:20:07;;;;;;;7.28;3.17;;;;;;;;;;5014665;28;20041;-77
2022/04/21 00:25:17;;;;;;;8.63;3.42;;;;;;;;;;5013430;28;20033;-77
2022/04/21 00:27:44;;;;;;;4.85;3.55;;;;;;;;;;5012073;28;20022;-77
2022/04/21 00:30:11;;;;;;;6.70;3.60;;;;;;;;;;4993853;28;20038;-77
2022/04/21 00:32:39;;;;;;;6.22;3.47;;;;;;;;;;5015009;28;20034;-77
2022/04/21 00:35:06;;;;;;;11.13;3.58;;;;;;;;;;5014700;28;20018;-77
2022/04/21 00:37:32;;;;;;;5.93;4.05;;;;;;;;;;5013735;28;20462;-77
2022/04/21 00:39:59;;;;;;;6.30;3.85;;;;;;;;;;5010569;28;20092;-77
2022/04/21 00:42:25;;;;;;;6.40;3.60;;;;;;;;;;5012362;28;20022;-77
2022/04/21 00:44:51;;;;;;;6.22;4.00;;;;;;;;;;5013005;28;20034;-78
2022/04/21 00:47:18;;;;;;;6.68;4.05;;;;;;;;;;5014777;28;20037;-78
2022/04/21 00:49:48;;;;;;;10.80;4.40;;;;;;;;;;5010990;28;20425;-78
2022/04/21 00:52:15;;;;;;;7.40;4.75;;;;;;;;;;5020044;28;20032;-78
2022/04/21 00:54:42;;;;;;;7.78;4.35;;;;;;;;;;5013195;28;20496;-78
2022/04/21 00:57:08;;;;;;;5.75;3.72;;;;;;;;;;5013552;28;20105;-77
2022/04/21 00:59:34;;;;;;;6.85;4.15;;;;;;;;;;5008654;28;20125;-78
2022/04/21 01:04:46;;;;;;;6.65;4.30;;;;;;;;;;5013179;28;20053;-78
2022/04/21 01:07:13;;;;;;;6.07;4.72;;;;;;;;;;5013935;28;20053;-78
2022/04/21 01:09:39;;;;;;;5.57;4.03;;;;;;;;;;5012357;28;20072;-78
2022/04/21 01:12:09;;;;;;;7.07;4.68;;;;;;;;;;5011002;28;20053;-77
2022/04/21 01:14:38;;;;;;;8.23;5.72;;;;;;;;;;5012654;28;20381;-77
2022/04/21 01:17:05;;;;;;;6.97;4.47;;;;;;;;;;5020519;28;20038;-77
2022/04/21 01:19:31;;;;;;;5.90;4.50;;;;;;;;;;5012506;28;20030;-77
2022/04/21 01:21:57;;;;;;;10.00;5.28;;;;;;;;;;4996526;28;20033;-78
2022/04/21 01:24:24;;;;;;;8.27;5.20;;;;;;;;;;5030926;28;20362;-77
2022/04/21 01:26:50;;;;;;;8.05;5.40;;;;;;;;;;5030169;28;20064;-77
2022/04/21 01:29:17;;;;;;;8.55;4.63;;;;;;;;;;5032221;28;20037;-77
2022/04/21 01:31:43;;;;;;;7.57;4.65;;;;;;;;;;5030161;28;20033;-77
2022/04/21 01:34:09;;;;;;;10.02;4.82;;;;;;;;;;5034568;28;20029;-77
2022/04/21 01:41:08;;;;;;;10.82;5.80;;;;;;;;;;5028630;28;20040;-77
2022/04/21 01:42:06;;;;;;;8.40;4.85;;;;;;;;;;5032011;28;20172;-77
2022/04/21 01:44:33;;;;;;;7.95;5.38;;;;;;;;;;5029715;28;20064;-77
2022/04/21 01:46:59;;;;;;;9.50;5.82;;;;;;;;;;5030924;28;20036;-77
2022/04/21 01:49:25;;;;;;;10.30;5.75;;;;;;;;;;5031229;28;20037;-77
2022/04/21 01:51:51;;;;;;;9.43;6.05;;;;;;;;;;5030635;28;20101;-77
2022/04/21 01:54:17;;;;;;;7.53;5.97;;;;;;;;;;5031785;28;20038;-77
2022/04/21 01:56:43;;;;;;;10.38;6.57;;;;;;;;;;5011992;28;20037;-77
2022/04/21 01:59:10;;;;;;;10.18;6.53;;;;;;;;;;5032537;28;20493;-77
2022/04/21 02:01:36;;;;;;;11.77;7.22;;;;;;;;;;5013802;28;20477;-77
2022/04/21 02:04:02;;;;;;;10.77;6.88;;;;;;;;;;5032169;28;20026;-77
2022/04/21 02:06:28;;;;;;;12.43;7.57;;;;;;;;;;5020400;28;20516;-77
2022/04/21 02:08:55;;;;;;;11.07;6.13;;;;;;;;;;5044349;28;20389;-77
2022/04/21 02:11:21;;;;;;;9.65;6.72;;;;;;;;;;5031067;28;20032;-77
2022/04/21 02:13:47;;;;;;;11.68;6.78;;;;;;;;;;5012820;28;20049;-77
2022/04/21 02:16:13;;;;;;;10.73;6.85;;;;;;;;;;5027954;28;20048;-77
2022/04/21 02:18:39;;;;;;;12.27;6.72;;;;;;;;;;5027490;28;20392;-77
2022/04/21 02:21:06;;;;;;;10.10;7.25;;;;;;;;;;5023135;28;20446;-77
2022/04/21 02:23:32;;;;;;;13.15;7.80;;;;;;;;;;5029698;28;20053;-77
2022/04/21 02:25:58;;;;;;;14.25;8.10;;;;;;;;;;5030893;28;20041;-77
2022/04/21 02:28:25;;;;;;;10.35;7.22;;;;;;;;;;5028815;28;20100;-77
2022/04/21 02:30:51;;;;;;;9.32;7.10;;;;;;;;;;5015489;28;20033;-77
2022/04/21 02:33:17;;;;;;;13.00;8.25;;;;;;;;;;5032064;28;20038;-77
2022/04/21 02:35:43;;;;;;;12.45;7.93;;;;;;;;;;5013524;28;20081;-77
2022/04/21 02:38:09;;;;;;;11.27;8.27;;;;;;;;;;5013510;28;20080;-77
2022/04/21 02:40:35;;;;;;;11.57;8.10;;;;;;;;;;5030202;28;20038;-77
2022/04/21 02:43:02;;;;;;;15.60;8.57;;;;;;;;;;5028499;28;20536;-77
2022/04/21 02:45:28;;;;;;;14.65;9.05;;;;;;;;;;5030106;28;20033;-77
2022/04/21 02:47:57;;;;;;;23.83;9.43;;;;;;;;;;5030980;28;20049;-77
2022/04/21 02:50:23;;;;;;;14.65;8.95;;;;;;;;;;5031222;28;20489;-77
2022/04/21 02:52:49;;;;;;;15.90;9.43;;;;;;;;;;5034648;28;20120;-77
2022/04/21 02:58:00;;;;;;;16.88;9.73;;;;;;;;;;5016071;28;20048;-77
2022/04/21 03:00:27;;;;;;;15.85;8.90;;;;;;;;;;5031201;28;20634;-77
2022/04/21 03:02:53;;;;;;;14.60;9.75;;;;;;;;;;5030346;28;20029;-77
2022/04/21 03:05:19;;;;;;;16.48;8.95;;;;;;;;;;5029154;28;20037;-76
2022/04/21 03:07:45;;;;;;;13.10;8.77;;;;;;;;;;5012686;28;20453;-77
2022/04/21 03:10:11;;;;;;;13.95;10.10;;;;;;;;;;5031390;28;20063;-77
2022/04/21 03:12:38;;;;;;;12.68;9.07;;;;;;;;;;5028863;28;20060;-77
2022/04/21 03:15:04;;;;;;;12.57;9.20;;;;;;;;;;5012800;28;20036;-77
2022/04/21 03:17:30;;;;;;;14.43;9.23;;;;;;;;;;5028166;28;20033;-77
2022/04/21 03:19:56;;;;;;;13.82;10.27;;;;;;;;;;5016601;28;20049;-77
2022/04/21 03:25:10;;;;;;;15.40;9.60;;;;;;;;;;5007170;28;20077;-76
2022/04/21 03:27:36;;;;;;;15.00;9.68;;;;;;;;;;5009079;28;20034;-76
2022/04/21 03:30:05;;;;;;;17.10;9.82;;;;;;;;;;5016360;28;20068;-77
2022/04/21 03:32:31;;;;;;;14.57;9.70;;;;;;;;;;4995363;28;20018;-77
2022/04/21 03:35:00;;;;;;;15.32;10.32;;;;;;;;;;5003383;28;20489;-77
2022/04/21 03:37:26;;;;;;;19.50;10.95;;;;;;;;;;5011297;28;20030;-77
2022/04/21 03:39:52;;;;;;;17.35;10.38;;;;;;;;;;5003212;28;20042;-77
2022/04/21 03:42:19;;;;;;;15.80;10.38;;;;;;;;;;4991460;28;20022;-76
2022/04/21 03:44:46;;;;;;;15.80;10.05;;;;;;;;;;4983723;28;20121;-76
2022/04/21 03:47:12;;;;;;;17.92;11.40;;;;;;;;;;4996712;28;20034;-77
2022/04/21 03:49:38;;;;;;;19.50;11.40;;;;;;;;;;5007235;28;20034;-77
2022/04/21 03:52:04;;;;;;;16.38;11.07;;;;;;;;;;5022937;28;20029;-77
2022/04/21 03:54:30;;;;;;;18.27;10.30;;;;;;;;;;5010186;28;20138;-77
2022/04/21 03:56:56;;;;;;;20.08;11.55;;;;;;;;;;5009105;28;20072;-77
2022/04/21 03:59:23;;;;;;;18.90;12.65;;;;;;;;;;5008145;28;20523;-77
2022/04/21 04:01:50;;;;;;;20.58;11.85;;;;;;;;;;5011335;28;20030;-78
2022/04/21 04:04:16;;;;;;;16.20;11.32;;;;;;;;;;5009819;28;20117;-77
2022/04/21 04:12:12;;;;;;;19.60;11.52;;;;;;;;;;5021964;28;20126;-77
2022/04/21 04:14:38;;;;;;;21.27;12.18;;;;;;;;;;5010030;28;20033;-77
2022/04/21 04:17:06;;;;;;;20.40;13.43;;;;;;;;;;5004017;28;20019;-77
2022/04/21 04:19:32;;;;;;;16.90;11.00;;;;;;;;;;5003742;28;20049;-77
2022/04/21 04:21:59;;;;;;;20.48;12.45;;;;;;;;;;5010951;28;20026;-78
2022/04/21 04:24:25;;;;;;;17.52;11.60;;;;;;;;;;5009639;28;20048;-78
2022/04/21 04:26:51;;;;;;;16.85;11.40;;;;;;;;;;5004527;28;20081;-78
2022/04/21 04:29:22;;;;;;;19.90;12.02;;;;;;;;;;5004122;28;20065;-78
2022/04/21 04:31:49;;;;;;;18.88;12.07;;;;;;;;;;5024575;28;20025;-78
2022/04/21 04:34:15;;;;;;;18.00;11.63;;;;;;;;;;4996964;28;20030;-78
2022/04/21 04:36:41;;;;;;;21.70;13.45;;;;;;;;;;5010745;28;20045;-79
2022/04/21 04:39:08;;;;;;;18.55;11.65;;;;;;;;;;5001353;28;20093;-78
2022/04/21 04:44:18;;;;;;;19.27;12.68;;;;;;;;;;5010531;28;20037;-78
2022/04/21 04:46:44;;;;;;;17.55;11.48;;;;;;;;;;5006795;28;20026;-77
2022/04/21 04:49:11;;;;;;;16.30;10.73;;;;;;;;;;5012988;28;20037;-77
2022/04/21 04:51:41;;;;;;;17.42;10.85;;;;;;;;;;5018328;28;20038;-77
2022/04/21 04:54:07;;;;;;;13.95;10.43;;;;;;;;;;5009469;28;20030;-77
2022/04/21 04:56:34;;;;;;;18.38;10.55;;;;;;;;;;5015653;28;20033;-76
2022/04/21 04:59:00;;;;;;;18.08;11.05;;;;;;;;;;5008977;28;20450;-77
2022/04/21 05:01:41;;;;;;;17.65;10.40;;;;;;;;;;5020367;28;20040;-77
2022/04/21 05:04:09;;;;;;;16.75;10.48;;;;;;;;;;5003386;28;20533;-77
2022/04/21 05:06:45;;;;;;;18.10;10.23;;;;;;;;;;4989499;28;20062;-76
2022/04/21 05:09:13;;;;;;;14.98;9.88;;;;;;;;;;5003421;28;20112;-77
2022/04/21 05:11:40;;;;;;;17.30;9.98;;;;;;;;;;4992318;28;20048;-78
2022/04/21 05:14:09;;;;;;;23.08;11.57;;;;;;;;;;5008098;28;20157;-76
2022/04/21 05:16:42;;;;;;;15.27;11.13;;;;;;;;;;5012289;28;20629;-75
2022/04/21 05:19:08;;;;;;;;;;;;;;;;;;5008582;28;20057;-77
2022/04/21 05:21:35;;;;;;;18.35;10.50;;;;;;;;;;5007778;28;20396;-76
2022/04/21 05:24:01;;;;;;;12.18;9.43;;;;;;;;;;5010011;28;20466;-75
2022/04/21 05:26:29;;;;;;;15.65;9.52;;;;;;;;;;5023245;28;20033;-75
2022/04/21 05:28:56;;;;;;;16.63;9.32;;;;;;;;;;5027897;28;20120;-75
2022/04/21 05:31:22;;;;;;;14.85;9.10;;;;;;;;;;5033000;28;20381;-75
2022/04/21 05:33:49;;;;;;;14.35;9.15;;;;;;;;;;5029565;28;20370;-75
2022/04/21 05:36:15;;;;;;;14.18;8.88;;;;;;;;;;5032518;28;20130;-75
2022/04/21 05:38:42;;;;;;;14.95;9.55;;;;;;;;;;5031508;28;20030;-76
2022/04/21 05:41:08;;;;;;;15.57;9.40;;;;;;;;;;5032622;28;20401;-73
2022/04/21 05:43:34;;;;;;;22.42;14.18;;;;;;;;;;5025363;28;20500;-76
2022/04/21 05:46:00;;;;;;;31.17;16.48;;;;;;;;;;5022646;28;20038;-74
2022/04/21 05:48:26;;;;;;;15.02;8.05;;;;;;;;;;5022770;28;20026;-75
2022/04/21 05:50:53;;;;;;;12.50;8.43;;;;;;;;;;5038880;28;20041;-76
2022/04/21 05:53:23;;;;;;;12.50;8.93;;;;;;;;;;5030174;28;20033;-76
2022/04/21 05:55:50;;;;;;;12.43;7.68;;;;;;;;;;5011574;28;20068;-78
2022/04/21 05:58:16;;;;;;;13.55;8.13;;;;;;;;;;5004753;28;20037;-77
2022/04/21 06:00:42;;;;;;;10.57;7.03;;;;;;;;;;5031717;28;20037;-77
2022/04/21 06:03:10;;;;;;;24.73;8.65;;;;;;;;;;5026902;28;20466;-77
2022/04/21 06:05:37;;;;;;;42.50;9.48;;;;;;;;;;5000402;28;20034;-77
2022/04/21 06:08:03;;;;;;;57.17;9.20;;;;;;;;;;5030180;28;20021;-77
2022/04/21 06:10:29;;;;;;;15.77;8.55;;;;;;;;;;5031371;28;20382;-76
2022/04/21 06:12:55;;;;;;;14.65;7.70;;;;;;;;;;5013671;28;20056;-76
2022/04/21 06:15:21;;;;;;;9.55;7.03;;;;;;;;;;5023924;28;20036;-79
2022/04/21 06:17:47;;;;;;;12.15;6.97;;;;;;;;;;5013012;28;20029;-80
2022/04/21 06:20:14;;;;;;;11.77;7.97;;;;;;;;;;5008793;28;20029;-78
2022/04/21 06:22:40;;;;;;;33.70;17.60;;;;;;;;;;5020391;28;20062;-78
2022/04/21 06:25:06;;;;;;;21.13;12.35;;;;;;;;;;5011729;28;20076;-78
2022/04/21 06:27:32;;;;;;;9.40;5.50;;;;;;;;;;4998706;28;20029;-78
2022/04/21 06:29:59;;;;;;;13.30;6.45;;;;;;;;;;5015417;28;20061;-78
2022/04/21 06:32:25;;;;;;;7.65;5.88;;;;;;;;;;4996620;28;20014;-77
2022/04/21 06:34:51;;;;;;;10.93;5.47;;;;;;;;;;5007654;28;20148;-78
2022/04/21 06:37:17;;;;;;;9.65;6.63;;;;;;;;;;4987006;28;20053;-78
2022/04/21 06:39:43;;;;;;;8.35;5.72;;;;;;;;;;5001203;28;20049;-78
2022/04/21 06:42:09;;;;;;;11.18;5.70;;;;;;;;;;5007945;28;20124;-78
2022/04/21 06:50:05;;;;;;;15.32;10.38;;;;;;;;;;5008536;28;20064;-77
2022/04/21 06:52:32;;;;;;;36.05;22.70;;;;;;;;;;5005996;28;20040;-76
2022/04/21 06:54:58;;;;;;;8.48;5.10;;;;;;;;;;5010429;28;20033;-79
2022/04/21 06:57:24;;;;;;;6.93;4.28;;;;;;;;;;5012246;28;20037;-78
2022/04/21 06:59:50;;;;;;;6.88;4.85;;;;;;;;;;5007400;28;20069;-78
2022/04/21 07:02:16;;;;;;;7.30;4.53;;;;;;;;;;5009641;28;20036;-78
2022/04/21 07:04:42;;;;;;;9.98;4.72;;;;;;;;;;5005472;28;20048;-78
2022/04/21 07:07:08;;;;;;;6.82;4.63;;;;;;;;;;5003145;28;20038;-81
2022/04/21 07:09:34;;;;;;;7.50;4.53;;;;;;;;;;5009110;28;20034;-77
2022/04/21 07:12:01;;;;;;;6.95;4.60;;;;;;;;;;5006717;28;20034;-74
2022/04/21 07:14:27;;;;;;;4.90;4.00;;;;;;;;;;5007650;28;20033;-75
2022/04/21 07:16:53;;;;;;;7.70;4.15;;;;;;;;;;5007912;28;20088;-75
2022/04/21 07:19:19;;;;;;;6.22;3.60;;;;;;;;;;5023711;28;20054;-75
2022/04/21 07:21:45;;;;;;;6.75;3.83;;;;;;;;;;5004965;28;20073;-73
2022/04/21 07:24:11;;;;;;;5.68;3.67;;;;;;;;;;5006900;28;20053;-74
2022/04/21 07:26:38;;;;;;;4.22;3.42;;;;;;;;;;5009702;28;20060;-74
2022/04/21 07:29:04;;;;;;;5.90;3.22;;;;;;;;;;5028243;28;20029;-74
2022/04/21 07:31:30;;;;;;;5.60;3.58;;;;;;;;;;5026432;28;20033;-74
2022/04/21 07:33:56;;;;;;;3.33;2.70;;;;;;;;;;5023975;28;20409;-74
2022/04/21 07:36:22;;;;;;;5.82;2.90;;;;;;;;;;5027691;28;20412;-75
2022/04/21 07:38:49;;;;;;;4.00;2.65;;;;;;;;;;5027383;28;20456;-76
2022/04/21 07:41:15;;;;;;;15.65;9.45;;;;;;;;;;5028429;28;20470;-78
2022/04/21 07:43:42;;;;;;;5.22;3.05;;;;;;;;;;5029033;28;20180;-78
2022/04/21 07:46:09;;;;;;;3.50;2.70;;;;;;;;;;5025749;28;20037;-76
2022/04/21 07:51:20;;;;;;;6.63;2.50;;;;;;;;;;5027440;28;20575;-76
2022/04/21 07:53:46;;;;;;;4.15;2.25;;;;;;;;;;5028917;28;20032;-75
2022/04/21 07:56:12;;;;;;;4.72;2.15;;;;;;;;;;5027806;28;20037;-75
2022/04/21 07:58:38;;;;;;;3.58;2.35;;;;;;;;;;5029402;28;20021;-75
2022/04/21 08:01:04;;;;;;;5.40;2.20;;;;;;;;;;5028391;28;20339;-75
2022/04/21 08:03:37;;;;;;;4.50;1.90;;;;;;;;;;5031254;28;20092;-76
2022/04/21 08:06:03;;;;;;;5.10;1.65;;;;;;;;;;5026021;28;20420;-76
2022/04/21 08:08:29;;;;;;;3.78;1.90;;;;;;;;;;5011815;28;20030;-78
2022/04/21 08:10:57;;;;;;;6.40;1.80;;;;;;;;;;5027789;28;20088;-76
2022/04/21 08:13:24;;;;;;;2.13;1.80;;;;;;;;;;5031823;28;20034;-77
2022/04/21 08:15:51;;;;;;;3.85;1.90;;;;;;;;;;5027612;28;20485;-78
2022/04/21 08:18:17;;;;;;;4.22;2.00;;;;;;;;;;5031421;28;20038;-81
2022/04/21 08:20:43;;;;;;;4.00;1.80;;;;;;;;;;5016331;28;20048;-81
2022/04/21 08:23:09;;;;;;;3.42;1.77;;;;;;;;;;5035006;28;20056;-84
2022/04/21 08:33:50;;;;;;;3.10;1.73;;;;;;;;;;5023279;28;20040;-80
2022/04/21 08:36:16;;;;;;;2.00;1.35;;;;;;;;;;5034668;28;20079;-80
2022/04/21 08:38:42;;;;;;;11.23;6.93;;;;;;;;;;5023369;28;20033;-83
2022/04/21 08:41:10;;;;;;;6.63;2.95;;;;;;;;;;5032869;28;20037;-79
2022/04/21 08:43:36;;;;;;;6.63;2.08;;;;;;;;;;5013186;28;20469;-74
2022/04/21 08:46:03;;;;;;;4.43;1.38;;;;;;;;;;5015249;28;20041;-75
2022/04/21 08:48:29;;;;;;;2.45;1.77;;;;;;;;;;5030637;28;20033;-74
2022/04/21 08:50:56;;;;;;;4.15;1.52;;;;;;;;;;5032171;28;20037;-74
2022/04/21 08:53:24;;;;;;;3.17;1.58;;;;;;;;;;5031096;28;20029;-74
2022/04/21 08:55:51;;;;;;;2.45;1.50;;;;;;;;;;5015824;28;20040;-74
2022/04/21 08:58:17;;;;;;;3.67;1.27;;;;;;;;;;5010574;28;20018;-74
2022/04/21 09:00:44;;;;;;;7.78;2.05;;;;;;;;;;5037920;28;20069;-75
2022/04/21 09:03:10;;;;;;;2.75;1.83;;;;;;;;;;5029391;28;20025;-75
2022/04/21 09:05:36;;;;;;;2.45;1.45;;;;;;;;;;5027013;28;20029;-76
2022/04/21 09:08:03;;;;;;;5.35;1.60;;;;;;;;;;5027344;28;20461;-76
2022/04/21 09:10:30;;;;;;;3.13;1.60;;;;;;;;;;5028889;28;20366;-76
2022/04/21 09:12:58;;;;;;;7.85;1.70;;;;;;;;;;5029196;28;20274;-76
2022/04/21 09:15:27;;;;;;;2.72;1.25;;;;;;;;;;5030448;28;20025;-75
2022/04/21 09:18:03;;;;;;;3.17;1.40;;;;;;;;;;5014341;28;20116;-75
2022/04/21 09:20:34;;;;;;;1.73;1.30;;;;;;;;;;5028377;28;20041;-75
2022/04/21 09:23:02;;;;;;;2.60;1.55;;;;;;;;;;4999577;28;20156;-75
2022/04/21 09:25:29;;;;;;;1.60;1.23;;;;;;;;;;5010999;28;20405;-75
2022/04/21 09:27:56;;;;;;;6.13;2.92;;;;;;;;;;5004351;28;20064;-77
2022/04/21 09:30:23;;;;;;;4.05;2.03;;;;;;;;;;5009558;28;20038;-78
2022/04/21 09:32:52;;;;;;;2.83;1.73;;;;;;;;;;5004388;28;20064;-74
2022/04/21 09:35:18;;;;;;;3.88;1.38;;;;;;;;;;5007994;28;20526;-79
2022/04/21 09:37:45;;;;;;;3.05;1.70;;;;;;;;;;5009838;28;20030;-75
2022/04/21 09:40:11;;;;;;;2.17;1.65;;;;;;;;;;5009531;28;20038;-76
2022/04/21 09:42:37;;;;;;;3.22;1.80;;;;;;;;;;5006410;28;20039;-77
2022/04/21 09:47:49;;;;;;;2.75;1.80;;;;;;;;;;5009512;28;20113;-75
2022/04/21 09:50:15;;;;;;;5.43;2.05;;;;;;;;;;5003762;28;20052;-76
2022/04/21 09:52:48;;;;;;;21.13;14.05;;;;;;;;;;5000702;28;20026;-77
2022/04/21 09:55:31;;;;;;;10.20;6.35;;;;;;;;;;5000751;28;20030;-77
2022/04/21 09:58:10;;;;;;;6.25;1.95;;;;;;;;;;5004837;28;20025;-73
2022/04/21 10:00:37;;;;;;;3.50;1.83;;;;;;;;;;5005405;28;20030;-73
2022/04/21 10:03:05;;;;;;;4.25;2.10;;;;;;;;;;5001612;28;20441;-74
2022/04/21 10:05:31;;;;;;;3.33;1.90;;;;;;;;;;5011874;28;20500;-73
2022/04/21 10:08:01;;;;;;;3.75;1.80;;;;;;;;;;5012435;28;20033;-74
2022/04/21 10:10:31;;;;;;;4.55;2.45;;;;;;;;;;5002424;28;20065;-74
2022/04/21 10:12:59;;;;;;;5.03;1.83;;;;;;;;;;4997705;28;20019;-74
2022/04/21 10:15:25;;;;;;;2.15;1.50;;;;;;;;;;5009401;28;20336;-74
2022/04/21 10:17:51;;;;;;;3.55;1.83;;;;;;;;;;5004839;28;20032;-74
2022/04/21 10:20:18;;;;;;;1.90;1.60;;;;;;;;;;5012490;28;20121;-78
2022/04/21 10:22:45;;;;;;;3.53;1.60;;;;;;;;;;5013962;28;20058;-75
2022/04/21 10:25:12;;;;;;;6.65;1.92;;;;;;;;;;5027838;28;20075;-77
2022/04/21 10:27:39;;;;;;;3.47;1.88;;;;;;;;;;5029312;28;20061;-78
2022/04/21 10:30:13;;;;;;;2.17;1.80;;;;;;;;;;5016567;28;20034;-77
2022/04/21 10:32:45;;;;;;;2.65;1.90;;;;;;;;;;5027057;28;20149;-76
2022/04/21 10:35:23;;;;;;;4.35;2.10;;;;;;;;;;5029979;28;20064;-76
2022/04/21 10:38:09;;;;;;;3.55;1.90;;;;;;;;;;5028636;28;20359;-75
2022/04/21 10:40:54;;;;;;;3.58;1.60;;;;;;;;;;5028038;28;20049;-76
2022/04/21 10:43:20;;;;;;;2.20;1.88;;;;;;;;;;5058491;28;20063;-75
2022/04/21 10:46:02;;;;;;;3.15;2.00;;;;;;;;;;5029658;28;20030;-78
2022/04/21 10:48:41;;;;;;;8.02;5.40;;;;;;;;;;5030545;28;20030;-77
2022/04/21 10:51:07;;;;;;;3.90;1.83;;;;;;;;;;5034624;28;20148;-84
2022/04/21 10:57:14;;;;;;;;;;;;;;;;;;4986915;28;20037;-75
2022/04/21 10:59:59;;;;;;;4.00;1.88;;;;;;;;;;4987869;28;19918;-75
2022/04/21 11:02:37;;;;;;;4.15;2.00;;;;;;;;;;5021187;28;20049;-75
2022/04/21 11:05:23;;;;;;;4.10;1.83;;;;;;;;;;5032482;28;20078;-75
2022/04/21 11:07:51;;;;;;;2.70;1.63;;;;;;;;;;5025139;28;20036;-75
2022/04/21 11:10:26;;;;;;;8.07;2.53;;;;;;;;;;5026815;28;20024;-76
2022/04/21 11:12:52;;;;;;;11.82;8.88;;;;;;;;;;5022816;28;20026;-76
2022/04/21 11:15:36;;;;;;;3.35;1.90;;;;;;;;;;5025236;28;20034;-75
2022/04/21 11:18:10;;;;;;;2.88;1.63;;;;;;;;;;5031466;28;20475;-75
2022/04/21 11:20:37;;;;;;;5.97;1.83;;;;;;;;;;5032915;28;20119;-75
2022/04/21 11:23:03;;;;;;;2.38;1.60;;;;;;;;;;5027933;28;20152;-75
2022/04/21 11:25:33;;;;;;;5.22;1.95;;;;;;;;;;5026171;28;20436;-75
2022/04/21 11:28:00;;;;;;;3.50;1.52;;;;;;;;;;5028595;28;20025;-74
2022/04/21 11:30:28;;;;;;;3.63;1.90;;;;;;;;;;5025586;28;20046;-75
2022/04/21 11:32:54;;;;;;;2.92;1.73;;;;;;;;;;5028628;28;20057;-73
2022/04/21 11:35:24;;;;;;;1.95;1.40;;;;;;;;;;5027664;28;20373;-75
2022/04/21 11:37:53;;;;;;;3.88;1.52;;;;;;;;;;5027547;28;20478;-76
2022/04/21 11:40:31;;;;;;;2.35;1.38;;;;;;;;;;5027094;28;20039;-76
2022/04/21 11:42:57;;;;;;;2.67;1.95;;;;;;;;;;5029238;28;20115;-76
2022/04/21 11:45:27;;;;;;;5.28;1.90;;;;;;;;;;5025764;28;20044;-77
2022/04/21 11:47:54;;;;;;;1.98;1.60;;;;;;;;;;5015301;28;20468;-76
2022/04/21 11:50:20;;;;;;;7.55;2.22;;;;;;;;;;5060921;28;20038;-76
2022/04/21 11:52:47;;;;;;;3.22;1.75;;;;;;;;;;5030285;28;20034;-76
2022/04/21 11:55:16;;;;;;;7.40;1.50;;;;;;;;;;5017350;28;20025;-76
2022/04/21 11:57:42;;;;;;;4.22;1.80;;;;;;;;;;5033116;28;20507;-78
2022/04/21 12:00:09;;;;;;;6.05;1.50;;;;;;;;;;5029827;28;20048;-77
2022/04/21 12:08:08;;;;;;;2.58;1.50;;;;;;;;;;5035008;28;20114;-77
2022/04/21 12:10:37;;;;;;;2.05;1.50;;;;;;;;;;5030706;28;20064;-76
2022/04/21 12:13:05;;;;;;;5.32;1.80;;;;;;;;;;5019549;28;20033;-76
2022/04/21 12:15:32;;;;;;;3.92;1.90;;;;;;;;;;5027616;28;20025;-76
2022/04/21 12:18:01;;;;;;;1.92;1.48;;;;;;;;;;5037034;28;20044;-76
2022/04/21 12:20:28;;;;;;;5.22;1.52;;;;;;;;;;5033576;28;20041;-76
2022/04/21 12:22:54;;;;;;;4.05;1.95;;;;;;;;;;5032936;28;20123;-76
2022/04/21 12:25:28;;;;;;;2.05;1.50;;;;;;;;;;5042317;28;20060;-75
2022/04/21 12:27:55;;;;;;;2.92;1.90;;;;;;;;;;5015421;28;20429;-75
2022/04/21 12:30:21;;;;;;;4.18;1.75;;;;;;;;;;5032921;28;20033;-75
2022/04/21 12:32:48;;;;;;;1.85;1.58;;;;;;;;;;5025038;28;20030;-75
2022/04/21 12:35:14;;;;;;;3.97;1.40;;;;;;;;;;5016001;28;20046;-75
2022/04/21 12:37:40;;;;;;;3.05;2.00;;;;;;;;;;5031883;28;20126;-75
2022/04/21 12:40:13;;;;;;;2.00;1.25;;;;;;;;;;5033757;28;20037;-76
2022/04/21 12:42:40;;;;;;;5.57;1.88;;;;;;;;;;5031432;28;20033;-76
2022/04/21 12:45:07;;;;;;;5.65;1.73;;;;;;;;;;5032710;28;20036;-76
2022/04/21 12:47:42;;;;;;;2.35;1.50;;;;;;;;;;5024209;28;20049;-75
2022/04/21 12:50:09;;;;;;;4.40;1.50;;;;;;;;;;5015098;28;20028;-76
2022/04/21 12:52:36;;;;;;;2.40;1.80;;;;;;;;;;5026069;28;20370;-77
2022/04/21 12:55:13;;;;;;;3.10;1.88;;;;;;;;;;5042639;28;20108;-77
2022/04/21 12:57:39;;;;;;;5.07;2.00;;;;;;;;;;5004523;28;20041;-76
2022/04/21 13:00:09;;;;;;;3.67;2.17;;;;;;;;;;5027077;28;20123;-76
2022/04/21 13:02:36;;;;;;;8.90;2.25;;;;;;;;;;5026746;28;20103;-76
2022/04/21 13:05:02;;;;;;;5.80;2.13;;;;;;;;;;5012973;28;20029;-79
2022/04/21 13:07:29;;;;;;;4.70;2.60;;;;;;;;;;5020338;28;20030;-78
2022/04/21 13:09:58;;;;;;;11.35;3.85;;;;;;;;;;5022941;28;20394;-78
2022/04/21 13:12:24;;;;;;;4.00;2.97;;;;;;;;;;5006609;28;20029;-77
2022/04/21 13:14:50;;;;;;;5.57;2.88;;;;;;;;;;5030039;28;20187;-77
2022/04/21 13:17:17;;;;;;;6.85;2.70;;;;;;;;;;5035569;28;20029;-78
2022/04/21 13:19:43;;;;;;;5.63;2.70;;;;;;;;;;5032661;28;20029;-78
2022/04/21 13:22:09;;;;;;;3.65;2.33;;;;;;;;;;5000767;28;20054;-77
2022/04/21 13:24:35;;;;;;;4.00;2.30;;;;;;;;;;5027935;28;20058;-78
2022/04/21 13:27:02;;;;;;;6.20;2.53;;;;;;;;;;5034949;28;20039;-78
2022/04/21 13:29:29;;;;;;;12.07;2.85;;;;;;;;;;5029736;28;20034;-77
2022/04/21 13:34:40;;;;;;;7.30;2.65;;;;;;;;;;5033145;28;20060;-80
2022/04/21 13:37:06;;;;;;;5.72;3.25;;;;;;;;;;5034035;28;20038;-76
2022/04/21 13:39:35;;;;;;;9.27;5.50;;;;;;;;;;5037916;28;20047;-79
2022/04/21 13:42:02;;;;;;;4.00;2.70;;;;;;;;;;5013242;28;20432;-78
2022/04/21 13:44:28;;;;;;;3.50;2.75;;;;;;;;;;5033314;28;20037;-76
2022/04/21 13:46:57;;;;;;;8.55;3.08;;;;;;;;;;5039034;28;20078;-76
2022/04/21 13:49:23;;;;;;;5.85;2.78;;;;;;;;;;5034209;28;20024;-77
2022/04/21 13:51:49;;;;;;;9.93;3.13;;;;;;;;;;5029925;28;20044;-79
2022/04/21 13:54:17;;;;;;;6.85;3.20;;;;;;;;;;5029809;28;20370;-77
2022/04/21 13:56:43;;;;;;;4.93;3.28;;;;;;;;;;5014197;28;20030;-77
2022/04/21 13:59:10;;;;;;;3.83;3.15;;;;;;;;;;5031541;28;20037;-77
2022/04/21 14:01:36;;;;;;;6.97;3.20;;;;;;;;;;5010987;28;20393;-77
2022/04/21 14:04:02;;;;;;;4.80;2.90;;;;;;;;;;5031509;28;20033;-78
2022/04/21 14:06:28;;;;;;;9.13;3.08;;;;;;;;;;5033154;28;20104;-77
2022/04/21 14:08:54;;;;;;;6.55;2.90;;;;;;;;;;5026978;28;20040;-77
2022/04/21 14:11:22;;;;;;;5.50;3.55;;;;;;;;;;5022432;28;20100;-79
2022/04/21 14:13:48;;;;;;;6.72;4.63;;;;;;;;;;5028615;28;20489;-80
2022/04/21 14:16:15;;;;;;;6.00;3.88;;;;;;;;;;5026963;28;20033;-80
2022/04/21 14:18:41;;;;;;;6.53;3.35;;;;;;;;;;5033170;28;20041;-79
2022/04/21 14:21:07;;;;;;;6.90;2.70;;;;;;;;;;5010876;28;20046;-79
2022/04/21 14:23:37;;;;;;;3.83;2.95;;;;;;;;;;5041073;28;20370;-79
2022/04/21 14:26:14;;;;;;;3.55;2.90;;;;;;;;;;5033442;28;20026;-78
2022/04/21 14:28:40;;;;;;;6.35;2.90;;;;;;;;;;5031526;28;20029;-78
2022/04/21 14:31:10;;;;;;;9.50;3.35;;;;;;;;;;5030145;28;20030;-79
2022/04/21 14:33:37;;;;;;;6.15;2.80;;;;;;;;;;5033035;28;20108;-77
2022/04/21 14:36:06;;;;;;;3.25;2.50;;;;;;;;;;5030769;28;20029;-79
2022/04/21 14:44:07;;;;;;;7.63;3.00;;;;;;;;;;5022664;28;20051;-77
2022/04/21 14:46:39;;;;;;;6.50;3.47;;;;;;;;;;5024482;28;20044;-77
2022/04/21 14:49:08;;;;;;;8.25;3.17;;;;;;;;;;5030187;28;20037;-78
2022/04/21 14:51:35;;;;;;;7.95;3.78;;;;;;;;;;5013067;28;20053;-78
2022/04/21 14:54:02;;;;;;;3.83;3.03;;;;;;;;;;5030295;28;20477;-76
2022/04/21 14:56:28;;;;;;;7.20;3.60;;;;;;;;;;5030230;28;20098;-77
2022/04/21 14:58:55;;;;;;;6.95;3.20;;;;;;;;;;5029769;28;20046;-77
2022/04/21 15:01:22;;;;;;;4.80;3.22;;;;;;;;;;5010593;28;20492;-77
2022/04/21 15:03:48;;;;;;;24.95;15.45;;;;;;;;;;5023665;28;20092;-80
2022/04/21 15:06:14;;;;;;;5.75;4.40;;;;;;;;;;4990776;28;20052;-82
2022/04/21 15:08:40;;;;;;;7.30;4.70;;;;;;;;;;5034040;28;20033;-81
2022/04/21 15:11:06;;;;;;;17.73;3.67;;;;;;;;;;5031016;28;20112;-78
2022/04/21 15:13:34;;;;;;;6.18;3.58;;;;;;;;;;5024787;28;20029;-77
2022/04/21 15:16:00;;;;;;;7.75;3.83;;;;;;;;;;5030772;28;20425;-77
2022/04/21 15:18:26;;;;;;;5.60;3.33;;;;;;;;;;5026674;28;20435;-78
2022/04/21 15:20:52;;;;;;;5.93;3.35;;;;;;;;;;4998614;28;20045;-78
2022/04/21 15:23:19;;;;;;;9.93;4.13;;;;;;;;;;5007243;28;20049;-78
2022/04/21 15:25:45;;;;;;;6.72;3.72;;;;;;;;;;5027854;28;20076;-78
2022/04/21 15:28:11;;;;;;;6.78;3.53;;;;;;;;;;5011244;28;20041;-78
2022/04/21 15:30:40;;;;;;;8.77;3.92;;;;;;;;;;5030110;28;20358;-78
2022/04/21 15:33:08;;;;;;;4.95;3.95;;;;;;;;;;5030003;28;20051;-78
2022/04/21 15:35:35;;;;;;;5.07;3.67;;;;;;;;;;5029296;28;20061;-78
2022/04/21 15:38:01;;;;;;;9.60;4.22;;;;;;;;;;5029985;28;20069;-77